sensor_id;sensor_type;location;lat;lon;timestamp;pressure;altitude;pressure_sealevel;temperature;humidity
7441;BME280;29616;51.950;8.572;2022-09-09T00:00:35;99362.09;;;13.52;100.00
7441;BME280;29616;51.950;8.572;2022-09-09T00:03:12;99363.31;;;13.50;100.00
7441;BME280;29616;51.950;8.572;2022-09-09T00:05:49;99355.19;;;13.42;100.00
7441;BME280;29616;51.950;8.572;2022-09-09T00:08:27;99352.16;;;13.36;100.00
7441;BME280;29616;51.950;8.572;2022-09-09T00:11:01;99360.41;;;13.36;100.00
7441;BME280;29616;51.950;8.572;2022-09-09T00:13:38;99364.00;;;13.37;100.00
7441;BME280;29616;51.950;8.572;2022-09-09T00:16:15;99367.09;;;13.34;100.00
7441;BME280;29616;51.950;8.572;2022-09-09T00:18:56;99372.44;;;13.35;100.00
7441;BME280;29616;51.950;8.572;2022-09-09T00:21:32;99353.59;;;13.47;100.00
7441;BME280;29616;51.950;8.572;2022-09-09T00:24:10;99358.88;;;13.63;100.00
7441;BME280;29616;51.950;8.572;2022-09-09T00:26:42;99360.28;;;13.74;100.00
7441;BME280;29616;51.950;8.572;2022-09-09T00:29:21;99358.09;;;13.84;100.00
7441;BME280;29616;51.950;8.572;2022-09-09T00:31:59;99359.81;;;14.00;100.00
7441;BME280;29616;51.950;8.572;2022-09-09T00:34:30;99360.53;;;14.08;100.00
7441;BME280;29616;51.950;8.572;2022-09-09T00:37:00;99351.44;;;14.08;100.00
7441;BME280;29616;51.950;8.572;2022-09-09T00:39:36;99361.50;;;14.01;100.00
7441;BME280;29616;51.950;8.572;2022-09-09T00:42:15;99374.09;;;13.95;100.00
7441;BME280;29616;51.950;8.572;2022-09-09T00:44:55;99367.03;;;13.86;100.00
7441;BME280;29616;51.950;8.572;2022-09-09T00:47:53;99371.75;;;13.77;100.00
7441;BME280;29616;51.950;8.572;2022-09-09T00:50:42;99362.75;;;13.69;100.00
7441;BME280;29616;51.950;8.572;2022-09-09T00:53:26;99371.47;;;13.58;100.00
7441;BME280;29616;51.950;8.572;2022-09-09T00:56:09;99368.06;;;13.56;100.00
7441;BME280;29616;51.950;8.572;2022-09-09T00:58:42;99354.28;;;13.49;100.00
7441;BME280;29616;51.950;8.572;2022-09-09T01:01:12;99360.78;;;13.48;100.00
7441;BME280;29616;51.950;8.572;2022-09-09T01:03:47;99346.94;;;13.42;100.00
7441;BME280;29616;51.950;8.572;2022-09-09T01:06:24;99347.16;;;13.40;100.00
7441;BME280;29616;51.950;8.572;2022-09-09T01:09:15;99349.41;;;13.36;100.00
7441;BME280;29616;51.950;8.572;2022-09-09T01:11:57;99367.41;;;13.39;100.00
7441;BME280;29616;51.950;8.572;2022-09-09T01:14:40;99356.22;;;13.26;100.00
7441;BME280;29616;51.950;8.572;2022-09-09T01:17:15;99362.84;;;13.17;100.00
7441;BME280;29616;51.950;8.572;2022-09-09T01:20:04;99356.13;;;13.19;100.00
7441;BME280;29616;51.950;8.572;2022-09-09T01:22:55;99359.13;;;13.10;100.00
7441;BME280;29616;51.950;8.572;2022-09-09T01:26:04;99350.78;;;13.03;100.00
7441;BME280;29616;51.950;8.572;2022-09-09T01:28:37;99355.19;;;12.90;100.00
7441;BME280;29616;51.950;8.572;2022-09-09T01:31:17;99348.47;;;12.92;100.00
7441;BME280;29616;51.950;8.572;2022-09-09T01:33:48;99355.69;;;12.93;100.00
7441;BME280;29616;51.950;8.572;2022-09-09T01:36:28;99362.97;;;13.01;100.00
7441;BME280;29616;51.950;8.572;2022-09-09T01:38:58;99310.53;;;12.81;100.00
7441;BME280;29616;51.950;8.572;2022-09-09T01:41:28;99355.44;;;13.17;100.00
7441;BME280;29616;51.950;8.572;2022-09-09T01:44:02;99353.19;;;13.21;100.00
7441;BME280;29616;51.950;8.572;2022-09-09T01:46:33;99354.34;;;13.26;100.00
7441;BME280;29616;51.950;8.572;2022-09-09T01:49:05;99357.75;;;13.28;100.00
7441;BME280;29616;51.950;8.572;2022-09-09T01:51:35;99345.91;;;13.28;100.00
7441;BME280;29616;51.950;8.572;2022-09-09T01:54:07;99350.94;;;13.24;100.00
7441;BME280;29616;51.950;8.572;2022-09-09T01:56:47;99348.56;;;13.21;100.00
7441;BME280;29616;51.950;8.572;2022-09-09T01:59:24;99345.16;;;13.19;100.00
7441;BME280;29616;51.950;8.572;2022-09-09T02:02:11;99358.19;;;13.17;100.00
7441;BME280;29616;51.950;8.572;2022-09-09T02:04:49;99354.88;;;13.07;100.00
7441;BME280;29616;51.950;8.572;2022-09-09T02:07:29;99349.06;;;13.02;100.00
7441;BME280;29616;51.950;8.572;2022-09-09T02:10:05;99346.22;;;12.96;100.00
7441;BME280;29616;51.950;8.572;2022-09-09T02:12:40;99346.41;;;12.94;100.00
7441;BME280;29616;51.950;8.572;2022-09-09T02:15:17;99346.75;;;12.91;100.00
7441;BME280;29616;51.950;8.572;2022-09-09T02:17:50;99359.09;;;12.95;100.00
7441;BME280;29616;51.950;8.572;2022-09-09T02:20:20;99352.09;;;12.93;100.00
7441;BME280;29616;51.950;8.572;2022-09-09T02:22:56;99356.72;;;12.92;100.00
7441;BME280;29616;51.950;8.572;2022-09-09T02:25:28;99350.56;;;12.90;100.00
7441;BME280;29616;51.950;8.572;2022-09-09T02:28:08;99356.41;;;12.87;100.00
7441;BME280;29616;51.950;8.572;2022-09-09T02:30:39;99361.53;;;12.90;100.00
7441;BME280;29616;51.950;8.572;2022-09-09T02:33:09;99362.00;;;12.94;100.00
7441;BME280;29616;51.950;8.572;2022-09-09T02:35:48;99354.91;;;12.99;100.00
7441;BME280;29616;51.950;8.572;2022-09-09T02:38:22;99357.13;;;13.04;100.00
7441;BME280;29616;51.950;8.572;2022-09-09T02:41:00;99346.97;;;13.04;100.00
7441;BME280;29616;51.950;8.572;2022-09-09T02:43:33;99371.44;;;13.14;100.00
7441;BME280;29616;51.950;8.572;2022-09-09T02:46:21;99355.44;;;13.17;100.00
7441;BME280;29616;51.950;8.572;2022-09-09T02:48:59;99357.00;;;13.20;100.00
7441;BME280;29616;51.950;8.572;2022-09-09T02:51:39;99360.19;;;13.23;100.00
7441;BME280;29616;51.950;8.572;2022-09-09T02:54:16;99358.78;;;13.27;100.00
7441;BME280;29616;51.950;8.572;2022-09-09T02:56:53;99349.22;;;13.23;100.00
7441;BME280;29616;51.950;8.572;2022-09-09T02:59:33;99360.75;;;13.33;100.00
7441;BME280;29616;51.950;8.572;2022-09-09T03:02:02;99345.53;;;13.31;100.00
7441;BME280;29616;51.950;8.572;2022-09-09T03:04:32;99361.72;;;13.41;100.00
7441;BME280;29616;51.950;8.572;2022-09-09T03:07:00;99367.88;;;13.43;100.00
7441;BME280;29616;51.950;8.572;2022-09-09T03:09:30;99359.16;;;13.39;100.00
7441;BME280;29616;51.950;8.572;2022-09-09T03:12:00;99365.13;;;13.43;100.00
7441;BME280;29616;51.950;8.572;2022-09-09T03:14:30;99364.09;;;13.44;100.00
7441;BME280;29616;51.950;8.572;2022-09-09T03:17:01;99377.84;;;13.44;100.00
7441;BME280;29616;51.950;8.572;2022-09-09T03:19:35;99369.97;;;13.41;100.00
7441;BME280;29616;51.950;8.572;2022-09-09T03:22:07;99370.13;;;13.39;100.00
7441;BME280;29616;51.950;8.572;2022-09-09T03:24:39;99366.94;;;13.35;100.00
7441;BME280;29616;51.950;8.572;2022-09-09T03:27:07;99359.75;;;13.34;100.00
7441;BME280;29616;51.950;8.572;2022-09-09T03:29:38;99364.19;;;13.35;100.00
7441;BME280;29616;51.950;8.572;2022-09-09T03:32:12;99363.81;;;13.39;100.00
7441;BME280;29616;51.950;8.572;2022-09-09T03:34:40;99361.09;;;13.39;100.00
7441;BME280;29616;51.950;8.572;2022-09-09T03:37:11;99369.13;;;13.40;100.00
7441;BME280;29616;51.950;8.572;2022-09-09T03:39:39;99353.22;;;13.35;100.00
7441;BME280;29616;51.950;8.572;2022-09-09T03:42:08;99347.72;;;13.35;100.00
7441;BME280;29616;51.950;8.572;2022-09-09T03:44:36;99357.38;;;13.46;100.00
7441;BME280;29616;51.950;8.572;2022-09-09T03:47:05;99364.03;;;13.52;100.00
7441;BME280;29616;51.950;8.572;2022-09-09T03:49:34;99357.66;;;13.51;100.00
7441;BME280;29616;51.950;8.572;2022-09-09T03:52:03;99356.44;;;13.54;100.00
7441;BME280;29616;51.950;8.572;2022-09-09T03:54:31;99352.84;;;13.53;100.00
7441;BME280;29616;51.950;8.572;2022-09-09T03:56:59;99354.34;;;13.56;100.00
7441;BME280;29616;51.950;8.572;2022-09-09T03:59:27;99353.31;;;13.57;100.00
7441;BME280;29616;51.950;8.572;2022-09-09T04:01:56;99353.88;;;13.67;100.00
7441;BME280;29616;51.950;8.572;2022-09-09T04:04:26;99350.53;;;13.71;100.00
7441;BME280;29616;51.950;8.572;2022-09-09T04:06:56;99351.41;;;13.72;100.00
7441;BME280;29616;51.950;8.572;2022-09-09T04:09:24;99357.44;;;13.82;100.00
7441;BME280;29616;51.950;8.572;2022-09-09T04:11:52;99344.78;;;13.81;100.00
7441;BME280;29616;51.950;8.572;2022-09-09T04:14:21;99355.94;;;13.94;100.00
7441;BME280;29616;51.950;8.572;2022-09-09T04:16:49;99361.50;;;14.01;100.00
7441;BME280;29616;51.950;8.572;2022-09-09T04:19:17;99336.59;;;13.87;100.00
7441;BME280;29616;51.950;8.572;2022-09-09T04:21:45;99365.84;;;14.10;100.00
7441;BME280;29616;51.950;8.572;2022-09-09T04:24:18;99369.88;;;14.14;100.00
7441;BME280;29616;51.950;8.572;2022-09-09T04:26:48;99368.47;;;14.18;100.00
7441;BME280;29616;51.950;8.572;2022-09-09T04:29:16;99363.84;;;14.18;100.00
7441;BME280;29616;51.950;8.572;2022-09-09T04:31:44;99367.69;;;14.24;100.00
7441;BME280;29616;51.950;8.572;2022-09-09T04:34:12;99370.72;;;14.29;100.00
7441;BME280;29616;51.950;8.572;2022-09-09T04:36:40;99368.81;;;14.29;100.00
7441;BME280;29616;51.950;8.572;2022-09-09T04:39:08;99363.72;;;14.26;100.00
7441;BME280;29616;51.950;8.572;2022-09-09T04:41:39;99369.38;;;14.25;100.00
7441;BME280;29616;51.950;8.572;2022-09-09T04:44:09;99364.28;;;14.22;100.00
7441;BME280;29616;51.950;8.572;2022-09-09T04:46:37;99363.84;;;14.18;100.00
7441;BME280;29616;51.950;8.572;2022-09-09T04:49:06;99364.22;;;14.15;100.00
7441;BME280;29616;51.950;8.572;2022-09-09T04:51:40;99371.78;;;14.13;100.00
7441;BME280;29616;51.950;8.572;2022-09-09T04:54:08;99369.72;;;14.15;100.00
7441;BME280;29616;51.950;8.572;2022-09-09T04:56:41;99368.22;;;14.13;100.00
7441;BME280;29616;51.950;8.572;2022-09-09T04:59:10;99366.38;;;14.20;100.00
7441;BME280;29616;51.950;8.572;2022-09-09T05:01:43;99372.34;;;14.23;100.00
7441;BME280;29616;51.950;8.572;2022-09-09T05:04:12;99369.22;;;14.26;100.00
7441;BME280;29616;51.950;8.572;2022-09-09T05:06:40;99371.56;;;14.29;100.00
7441;BME280;29616;51.950;8.572;2022-09-09T05:09:09;99369.50;;;14.31;100.00
7441;BME280;29616;51.950;8.572;2022-09-09T05:11:37;99375.66;;;14.33;100.00
7441;BME280;29616;51.950;8.572;2022-09-09T05:14:27;99375.66;;;14.33;100.00
7441;BME280;29616;51.950;8.572;2022-09-09T05:16:56;99385.41;;;14.36;100.00
7441;BME280;29616;51.950;8.572;2022-09-09T05:19:24;99390.69;;;14.37;100.00
7441;BME280;29616;51.950;8.572;2022-09-09T05:21:53;99389.47;;;14.40;100.00
7441;BME280;29616;51.950;8.572;2022-09-09T05:24:27;99392.03;;;14.41;100.00
7441;BME280;29616;51.950;8.572;2022-09-09T05:26:57;99393.72;;;14.42;100.00
7441;BME280;29616;51.950;8.572;2022-09-09T05:29:28;99384.97;;;14.53;100.00
7441;BME280;29616;51.950;8.572;2022-09-09T05:31:56;99389.56;;;14.68;100.00
7441;BME280;29616;51.950;8.572;2022-09-09T05:34:24;99357.59;;;14.67;100.00
7441;BME280;29616;51.950;8.572;2022-09-09T05:36:58;99382.34;;;14.88;100.00
7441;BME280;29616;51.950;8.572;2022-09-09T05:39:41;99375.28;;;15.00;100.00
7441;BME280;29616;51.950;8.572;2022-09-09T05:42:09;99387.28;;;15.20;100.00
7441;BME280;29616;51.950;8.572;2022-09-09T05:44:39;99377.50;;;15.11;100.00
7441;BME280;29616;51.950;8.572;2022-09-09T05:47:11;99390.75;;;15.29;100.00
7441;BME280;29616;51.950;8.572;2022-09-09T05:49:41;99378.09;;;15.34;100.00
7441;BME280;29616;51.950;8.572;2022-09-09T05:52:09;99394.34;;;15.50;100.00
7441;BME280;29616;51.950;8.572;2022-09-09T05:54:37;99381.66;;;15.56;100.00
7441;BME280;29616;51.950;8.572;2022-09-09T05:57:06;99388.50;;;15.66;100.00
7441;BME280;29616;51.950;8.572;2022-09-09T05:59:34;99392.63;;;15.84;100.00
7441;BME280;29616;51.950;8.572;2022-09-09T06:02:04;99381.44;;;15.92;100.00
7441;BME280;29616;51.950;8.572;2022-09-09T06:04:35;99397.44;;;16.16;100.00
7441;BME280;29616;51.950;8.572;2022-09-09T06:07:04;99392.44;;;16.32;100.00
7441;BME280;29616;51.950;8.572;2022-09-09T06:09:32;99390.19;;;16.56;100.00
7441;BME280;29616;51.950;8.572;2022-09-09T06:12:01;99383.22;;;16.66;100.00
7441;BME280;29616;51.950;8.572;2022-09-09T06:14:32;99381.78;;;16.83;100.00
7441;BME280;29616;51.950;8.572;2022-09-09T06:17:03;99355.66;;;16.73;100.00
7441;BME280;29616;51.950;8.572;2022-09-09T06:19:32;99395.81;;;17.08;100.00
7441;BME280;29616;51.950;8.572;2022-09-09T06:22:00;99393.06;;;17.08;100.00
7441;BME280;29616;51.950;8.572;2022-09-09T06:24:31;99383.09;;;17.14;100.00
7441;BME280;29616;51.950;8.572;2022-09-09T06:27:00;99388.63;;;17.53;100.00
7441;BME280;29616;51.950;8.572;2022-09-09T06:29:32;99384.22;;;18.09;100.00
7441;BME280;29616;51.950;8.572;2022-09-09T06:32:03;99381.34;;;18.80;100.00
7441;BME280;29616;51.950;8.572;2022-09-09T06:34:31;99380.47;;;19.35;100.00
7441;BME280;29616;51.950;8.572;2022-09-09T06:36:59;99374.63;;;18.94;100.00
7441;BME280;29616;51.950;8.572;2022-09-09T06:39:45;99372.53;;;18.90;100.00
7441;BME280;29616;51.950;8.572;2022-09-09T06:42:15;99374.38;;;19.02;100.00
7441;BME280;29616;51.950;8.572;2022-09-09T06:44:51;99365.88;;;19.53;100.00
7441;BME280;29616;51.950;8.572;2022-09-09T06:47:29;99380.81;;;18.58;100.00
7441;BME280;29616;51.950;8.572;2022-09-09T06:49:58;99375.63;;;18.31;100.00
7441;BME280;29616;51.950;8.572;2022-09-09T06:52:28;99383.38;;;18.02;100.00
7441;BME280;29616;51.950;8.572;2022-09-09T06:54:56;99386.66;;;17.73;100.00
7441;BME280;29616;51.950;8.572;2022-09-09T06:57:26;99376.91;;;17.64;100.00
7441;BME280;29616;51.950;8.572;2022-09-09T07:00:15;99393.06;;;17.61;100.00
7441;BME280;29616;51.950;8.572;2022-09-09T07:02:45;99396.91;;;17.53;100.00
7441;BME280;29616;51.950;8.572;2022-09-09T07:05:13;99397.28;;;17.50;100.00
7441;BME280;29616;51.950;8.572;2022-09-09T07:07:43;99394.13;;;17.53;100.00
7441;BME280;29616;51.950;8.572;2022-09-09T07:10:14;99399.25;;;17.56;100.00
7441;BME280;29616;51.950;8.572;2022-09-09T07:12:44;99389.25;;;17.55;100.00
7441;BME280;29616;51.950;8.572;2022-09-09T07:15:13;99397.09;;;17.71;100.00
7441;BME280;29616;51.950;8.572;2022-09-09T07:17:45;99385.16;;;17.71;100.00
7441;BME280;29616;51.950;8.572;2022-09-09T07:20:15;99403.44;;;17.78;100.00
7441;BME280;29616;51.950;8.572;2022-09-09T07:22:43;99398.75;;;17.85;100.00
7441;BME280;29616;51.950;8.572;2022-09-09T07:25:12;99406.34;;;17.96;100.00
7441;BME280;29616;51.950;8.572;2022-09-09T07:27:41;99401.72;;;17.90;100.00
7441;BME280;29616;51.950;8.572;2022-09-09T07:30:11;99403.13;;;18.12;100.00
7441;BME280;29616;51.950;8.572;2022-09-09T07:32:50;99412.28;;;18.13;100.00
7441;BME280;29616;51.950;8.572;2022-09-09T07:35:19;99402.19;;;18.32;100.00
7441;BME280;29616;51.950;8.572;2022-09-09T07:37:47;99410.47;;;18.38;100.00
7441;BME280;29616;51.950;8.572;2022-09-09T07:40:18;99406.16;;;18.62;100.00
7441;BME280;29616;51.950;8.572;2022-09-09T07:42:49;99390.69;;;18.79;100.00
7441;BME280;29616;51.950;8.572;2022-09-09T07:45:18;99395.97;;;18.87;100.00
7441;BME280;29616;51.950;8.572;2022-09-09T07:47:47;99399.13;;;18.97;100.00
7441;BME280;29616;51.950;8.572;2022-09-09T07:50:17;99385.69;;;19.25;100.00
7441;BME280;29616;51.950;8.572;2022-09-09T07:52:45;99396.22;;;19.42;100.00
7441;BME280;29616;51.950;8.572;2022-09-09T07:55:14;99397.09;;;19.85;100.00
7441;BME280;29616;51.950;8.572;2022-09-09T07:57:43;99390.38;;;20.65;100.00
7441;BME280;29616;51.950;8.572;2022-09-09T08:00:12;99383.22;;;21.40;100.00
7441;BME280;29616;51.950;8.572;2022-09-09T08:02:45;99388.41;;;21.25;100.00
7441;BME280;29616;51.950;8.572;2022-09-09T08:05:15;99388.38;;;21.13;100.00
7441;BME280;29616;51.950;8.572;2022-09-09T08:07:44;99384.47;;;20.73;100.00
7441;BME280;29616;51.950;8.572;2022-09-09T08:10:14;99380.75;;;20.68;100.00
7441;BME280;29616;51.950;8.572;2022-09-09T08:12:46;99380.34;;;21.24;100.00
7441;BME280;29616;51.950;8.572;2022-09-09T08:15:36;99381.78;;;22.70;100.00
7441;BME280;29616;51.950;8.572;2022-09-09T08:18:04;99384.47;;;22.93;100.00
7441;BME280;29616;51.950;8.572;2022-09-09T08:20:36;99378.19;;;23.15;100.00
7441;BME280;29616;51.950;8.572;2022-09-09T08:23:04;99392.44;;;23.46;100.00
7441;BME280;29616;51.950;8.572;2022-09-09T08:25:33;99383.47;;;23.44;100.00
7441;BME280;29616;51.950;8.572;2022-09-09T08:28:02;99382.88;;;23.42;100.00
7441;BME280;29616;51.950;8.572;2022-09-09T08:30:31;99394.31;;;24.51;100.00
7441;BME280;29616;51.950;8.572;2022-09-09T08:32:59;99382.66;;;23.32;100.00
7441;BME280;29616;51.950;8.572;2022-09-09T08:35:28;99389.97;;;23.83;100.00
7441;BME280;29616;51.950;8.572;2022-09-09T08:38:01;99392.00;;;22.93;100.00
7441;BME280;29616;51.950;8.572;2022-09-09T08:40:38;99403.75;;;22.44;100.00
7441;BME280;29616;51.950;8.572;2022-09-09T08:43:13;99410.72;;;22.06;100.00
7441;BME280;29616;51.950;8.572;2022-09-09T08:45:48;99408.00;;;21.00;100.00
7441;BME280;29616;51.950;8.572;2022-09-09T08:48:39;99412.22;;;20.91;100.00
7441;BME280;29616;51.950;8.572;2022-09-09T08:51:10;99394.56;;;21.16;100.00
7441;BME280;29616;51.950;8.572;2022-09-09T08:53:45;99416.06;;;21.20;100.00
7441;BME280;29616;51.950;8.572;2022-09-09T08:56:18;99405.09;;;21.25;100.00
7441;BME280;29616;51.950;8.572;2022-09-09T08:58:54;99410.75;;;20.89;100.00
7441;BME280;29616;51.950;8.572;2022-09-09T09:01:55;99410.97;;;20.58;100.00
7441;BME280;29616;51.950;8.572;2022-09-09T09:04:45;99419.69;;;20.91;100.00
7441;BME280;29616;51.950;8.572;2022-09-09T09:07:28;99420.63;;;20.85;100.00
7441;BME280;29616;51.950;8.572;2022-09-09T09:10:12;99408.31;;;20.81;100.00
7441;BME280;29616;51.950;8.572;2022-09-09T09:13:03;99430.25;;;20.52;100.00
7441;BME280;29616;51.950;8.572;2022-09-09T09:15:37;99423.94;;;20.45;100.00
7441;BME280;29616;51.950;8.572;2022-09-09T09:18:12;99426.53;;;20.59;100.00
7441;BME280;29616;51.950;8.572;2022-09-09T09:20:54;99429.31;;;20.22;100.00
7441;BME280;29616;51.950;8.572;2022-09-09T09:23:31;99419.44;;;20.92;100.00
7441;BME280;29616;51.950;8.572;2022-09-09T09:26:09;99426.59;;;21.00;100.00
7441;BME280;29616;51.950;8.572;2022-09-09T09:28:40;99419.56;;;21.16;100.00
7441;BME280;29616;51.950;8.572;2022-09-09T09:31:13;99419.00;;;22.53;100.00
7441;BME280;29616;51.950;8.572;2022-09-09T09:33:49;99397.81;;;23.53;100.00
7441;BME280;29616;51.950;8.572;2022-09-09T09:36:33;99416.59;;;22.45;100.00
7441;BME280;29616;51.950;8.572;2022-09-09T09:39:04;99409.03;;;21.82;100.00
7441;BME280;29616;51.950;8.572;2022-09-09T09:41:54;99407.94;;;20.77;100.00
7441;BME280;29616;51.950;8.572;2022-09-09T09:44:27;99408.06;;;20.34;100.00
7441;BME280;29616;51.950;8.572;2022-09-09T09:47:07;99411.72;;;20.10;100.00
7441;BME280;29616;51.950;8.572;2022-09-09T09:49:36;99429.66;;;19.71;100.00
7441;BME280;29616;51.950;8.572;2022-09-09T09:52:05;99420.94;;;19.68;100.00
7441;BME280;29616;51.950;8.572;2022-09-09T09:54:39;99418.88;;;19.81;100.00
7441;BME280;29616;51.950;8.572;2022-09-09T09:57:12;99423.44;;;19.94;100.00
7441;BME280;29616;51.950;8.572;2022-09-09T09:59:44;99426.75;;;20.75;100.00
7441;BME280;29616;51.950;8.572;2022-09-09T10:02:22;99423.06;;;21.99;100.00
7441;BME280;29616;51.950;8.572;2022-09-09T10:05:02;99426.34;;;22.70;100.00
7441;BME280;29616;51.950;8.572;2022-09-09T10:07:33;99417.38;;;23.25;100.00
7441;BME280;29616;51.950;8.572;2022-09-09T10:10:08;99416.00;;;23.72;100.00
7441;BME280;29616;51.950;8.572;2022-09-09T10:12:51;99413.00;;;23.95;100.00
7441;BME280;29616;51.950;8.572;2022-09-09T10:15:33;99411.03;;;24.29;100.00
7441;BME280;29616;51.950;8.572;2022-09-09T10:18:25;99392.88;;;23.55;100.00
7441;BME280;29616;51.950;8.572;2022-09-09T10:21:15;99408.97;;;23.86;100.00
7441;BME280;29616;51.950;8.572;2022-09-09T10:24:05;99412.00;;;23.85;100.00
7441;BME280;29616;51.950;8.572;2022-09-09T10:26:47;99411.97;;;24.35;100.00
7441;BME280;29616;51.950;8.572;2022-09-09T10:29:44;99410.84;;;22.74;100.00
7441;BME280;29616;51.950;8.572;2022-09-09T10:32:37;99417.69;;;23.12;100.00
7441;BME280;29616;51.950;8.572;2022-09-09T10:35:14;99418.59;;;22.72;100.00
7441;BME280;29616;51.950;8.572;2022-09-09T10:38:03;99403.75;;;23.40;100.00
7441;BME280;29616;51.950;8.572;2022-09-09T10:40:42;99408.53;;;23.28;100.00
7441;BME280;29616;51.950;8.572;2022-09-09T10:43:27;99407.28;;;22.90;100.00
7441;BME280;29616;51.950;8.572;2022-09-09T10:46:08;99393.78;;;23.44;100.00
7441;BME280;29616;51.950;8.572;2022-09-09T10:48:57;99400.88;;;23.68;100.00
7441;BME280;29616;51.950;8.572;2022-09-09T10:51:39;99402.97;;;24.11;100.00
7441;BME280;29616;51.950;8.572;2022-09-09T10:54:29;99395.53;;;23.05;100.00
7441;BME280;29616;51.950;8.572;2022-09-09T10:57:03;99391.38;;;22.63;100.00
7441;BME280;29616;51.950;8.572;2022-09-09T10:59:37;99389.44;;;22.91;100.00
7441;BME280;29616;51.950;8.572;2022-09-09T11:02:16;99394.09;;;23.97;100.00
7441;BME280;29616;51.950;8.572;2022-09-09T11:04:51;99390.25;;;25.07;100.00
7441;BME280;29616;51.950;8.572;2022-09-09T11:07:28;99394.16;;;24.84;100.00
7441;BME280;29616;51.950;8.572;2022-09-09T11:10:04;99396.06;;;25.05;100.00
7441;BME280;29616;51.950;8.572;2022-09-09T11:12:37;99391.94;;;25.40;100.00
7441;BME280;29616;51.950;8.572;2022-09-09T11:15:17;99403.38;;;25.06;100.00
7441;BME280;29616;51.950;8.572;2022-09-09T11:17:53;99391.03;;;24.81;100.00
7441;BME280;29616;51.950;8.572;2022-09-09T11:20:25;99390.59;;;24.07;100.00
7441;BME280;29616;51.950;8.572;2022-09-09T11:22:59;99390.19;;;23.98;100.00
7441;BME280;29616;51.950;8.572;2022-09-09T11:25:34;99384.41;;;24.43;100.00
7441;BME280;29616;51.950;8.572;2022-09-09T11:28:37;99389.31;;;25.55;100.00
7441;BME280;29616;51.950;8.572;2022-09-09T11:31:27;99389.09;;;25.61;100.00
7441;BME280;29616;51.950;8.572;2022-09-09T11:34:17;99387.94;;;24.34;100.00
7441;BME280;29616;51.950;8.572;2022-09-09T11:37:17;99389.00;;;24.98;100.00
7441;BME280;29616;51.950;8.572;2022-09-09T11:40:18;99385.81;;;23.69;100.00
7441;BME280;29616;51.950;8.572;2022-09-09T11:42:48;99391.50;;;22.96;100.00
7441;BME280;29616;51.950;8.572;2022-09-09T11:45:24;99391.34;;;22.74;100.00
7441;BME280;29616;51.950;8.572;2022-09-09T11:47:59;99398.13;;;22.27;100.00
7441;BME280;29616;51.950;8.572;2022-09-09T11:50:35;99393.19;;;22.06;100.00
7441;BME280;29616;51.950;8.572;2022-09-09T11:53:20;99398.81;;;22.34;100.00
7441;BME280;29616;51.950;8.572;2022-09-09T11:56:09;99393.44;;;23.57;100.00
7441;BME280;29616;51.950;8.572;2022-09-09T11:58:44;99392.53;;;23.68;100.00
7441;BME280;29616;51.950;8.572;2022-09-09T12:01:26;99386.31;;;23.83;100.00
7441;BME280;29616;51.950;8.572;2022-09-09T12:04:13;99379.16;;;23.37;100.00
7441;BME280;29616;51.950;8.572;2022-09-09T12:06:52;99379.63;;;24.00;100.00
7441;BME280;29616;51.950;8.572;2022-09-09T12:09:32;99388.38;;;25.76;100.00
7441;BME280;29616;51.950;8.572;2022-09-09T12:12:23;99373.75;;;26.58;97.31
7441;BME280;29616;51.950;8.572;2022-09-09T12:15:16;99382.66;;;25.07;100.00
7441;BME280;29616;51.950;8.572;2022-09-09T12:17:49;99385.97;;;23.96;100.00
7441;BME280;29616;51.950;8.572;2022-09-09T12:20:21;99375.50;;;24.90;100.00
7441;BME280;29616;51.950;8.572;2022-09-09T12:23:23;99377.75;;;25.78;96.33
7441;BME280;29616;51.950;8.572;2022-09-09T12:26:10;99378.34;;;25.85;97.72
7441;BME280;29616;51.950;8.572;2022-09-09T12:29:02;99368.25;;;26.21;93.99
7441;BME280;29616;51.950;8.572;2022-09-09T12:31:38;99379.31;;;25.64;92.06
7441;BME280;29616;51.950;8.572;2022-09-09T12:34:16;99385.56;;;26.75;83.42
7441;BME280;29616;51.950;8.572;2022-09-09T12:36:58;99374.03;;;25.67;97.13
7441;BME280;29616;51.950;8.572;2022-09-09T12:39:34;99385.44;;;26.39;95.69
7441;BME280;29616;51.950;8.572;2022-09-09T12:42:04;99374.16;;;26.91;87.87
7441;BME280;29616;51.950;8.572;2022-09-09T12:44:32;99369.00;;;25.69;95.43
7441;BME280;29616;51.950;8.572;2022-09-09T12:47:02;99374.03;;;25.67;95.74
7441;BME280;29616;51.950;8.572;2022-09-09T12:49:34;99372.69;;;26.74;93.95
7441;BME280;29616;51.950;8.572;2022-09-09T12:52:05;99349.28;;;27.35;86.15
7441;BME280;29616;51.950;8.572;2022-09-09T12:54:36;99371.19;;;26.04;92.77
7441;BME280;29616;51.950;8.572;2022-09-09T12:57:09;99364.91;;;26.91;87.73
7441;BME280;29616;51.950;8.572;2022-09-09T12:59:41;99374.53;;;25.33;97.39
7441;BME280;29616;51.950;8.572;2022-09-09T13:02:19;99369.53;;;25.08;100.00
7441;BME280;29616;51.950;8.572;2022-09-09T13:04:48;99365.59;;;24.34;100.00
7441;BME280;29616;51.950;8.572;2022-09-09T13:07:18;99362.28;;;23.60;100.00
7441;BME280;29616;51.950;8.572;2022-09-09T13:09:49;99348.94;;;23.01;100.00
7441;BME280;29616;51.950;8.572;2022-09-09T13:12:19;99357.94;;;22.74;100.00
7441;BME280;29616;51.950;8.572;2022-09-09T13:14:51;99375.97;;;22.60;100.00
7441;BME280;29616;51.950;8.572;2022-09-09T13:17:23;99355.13;;;22.74;100.00
7441;BME280;29616;51.950;8.572;2022-09-09T13:19:52;99372.88;;;22.85;100.00
7441;BME280;29616;51.950;8.572;2022-09-09T13:22:30;99349.84;;;22.89;100.00
7441;BME280;29616;51.950;8.572;2022-09-09T13:25:06;99351.63;;;22.96;100.00
7441;BME280;29616;51.950;8.572;2022-09-09T13:27:36;99356.13;;;22.97;100.00
7441;BME280;29616;51.950;8.572;2022-09-09T13:30:31;99363.84;;;23.56;100.00
7441;BME280;29616;51.950;8.572;2022-09-09T13:33:18;99354.09;;;25.00;100.00
7441;BME280;29616;51.950;8.572;2022-09-09T13:35:52;99353.19;;;27.19;100.00
7441;BME280;29616;51.950;8.572;2022-09-09T13:38:22;99354.59;;;27.32;96.77
7441;BME280;29616;51.950;8.572;2022-09-09T13:40:57;99349.84;;;27.37;92.56